Time;durP1;ratioP1;P1;durP2;ratioP2;P2;SDS_P1;SDS_P2;PMS_P1;PMS_P2;Temp;Humidity;BMP_temperature;BMP_pressure;BME280_temperature;BME280_humidity;BME280_pressure;Samples;Min_cycle;Max_cycle;Signal;HPM_P1;HPM_P2
2022/07/10 00:08:20;;;;;;;7.80;5.60;;;;;;;15.18;62.21;98649.96;447610;1266;106827;-41
2022/07/10 00:18:26;;;;;;;8.80;6.20;;;;;;;15.25;62.47;98645.15;447642;1267;108005;-41
2022/07/10 00:28:33;;;;;;;6.50;5.80;;;;;;;15.28;62.61;98637.17;447618;1268;95678;-41
2022/07/10 00:38:40;;;;;;;9.30;7.20;;;;;;;15.31;62.70;98620.39;447515;1269;96015;-43
2022/07/10 00:48:47;;;;;;;9.10;5.90;;;;;;;15.20;62.65;98607.58;447344;1269;112407;-42
2022/07/10 00:58:53;;;;;;;7.00;5.90;;;;;;;15.09;62.89;98597.65;447613;1267;107684;-41
2022/07/10 01:09:01;;;;;;;8.60;5.60;;;;;;;15.01;63.18;98589.10;447628;1267;108830;-42
2022/07/10 01:19:08;;;;;;;11.50;7.10;;;;;;;14.92;63.46;98581.98;447732;1258;96444;-41
2022/07/10 01:29:15;;;;;;;7.20;6.00;;;;;;;14.91;63.86;98577.03;447652;1268;95998;-41
2022/07/10 01:39:22;;;;;;;5.50;4.90;;;;;;;14.94;63.80;98568.95;447593;1267;112414;-41
2022/07/10 01:49:29;;;;;;;7.40;5.40;;;;;;;14.93;63.91;98558.71;447613;1267;109054;-41
2022/07/10 01:59:37;;;;;;;6.70;5.80;;;;;;;14.95;64.17;98552.61;447593;1267;108789;-41
2022/07/10 02:09:45;;;;;;;6.30;5.20;;;;;;;14.89;64.47;98542.15;447681;1266;95696;-41
2022/07/10 02:19:52;;;;;;;5.70;4.80;;;;;;;14.84;64.47;98531.71;447459;1269;95799;-42
2022/07/10 02:29:59;;;;;;;5.80;3.70;;;;;;;14.84;64.68;98533.74;447603;1266;112453;-41
2022/07/10 02:40:08;;;;;;;7.10;3.60;;;;;;;14.82;64.94;98538.90;447459;1268;108681;-41
2022/07/10 02:50:15;;;;;;;4.70;3.00;;;;;;;14.63;65.78;98541.20;447555;1268;108971;-41
2022/07/10 03:00:22;;;;;;;6.90;3.30;;;;;;;14.42;66.63;98535.75;447604;1266;95717;-41
2022/07/10 03:10:30;;;;;;;5.80;2.90;;;;;;;14.23;67.36;98540.55;447580;1267;95695;-41
2022/07/10 03:20:37;;;;;;;5.10;3.40;;;;;;;14.22;68.13;98543.63;447630;1266;112349;-41
2022/07/10 03:30:44;;;;;;;4.70;3.20;;;;;;;14.16;68.63;98537.61;447578;1267;108784;-40
2022/07/10 03:40:51;;;;;;;9.50;3.80;;;;;;;14.18;69.07;98539.59;447522;1269;108267;-40
2022/07/10 03:50:59;;;;;;;8.70;4.30;;;;;;;14.25;69.43;98540.46;447590;1268;95747;-40
2022/07/10 04:01:07;;;;;;;9.50;4.40;;;;;;;14.28;69.66;98538.46;447579;1268;96056;-40
2022/07/10 04:11:14;;;;;;;6.30;4.20;;;;;;;14.25;70.03;98535.83;447533;1269;112263;-40
2022/07/10 04:21:22;;;;;;;4.30;3.90;;;;;;;14.27;70.51;98542.60;447572;1268;108934;-41
2022/07/10 04:31:29;;;;;;;4.80;3.80;;;;;;;14.24;70.92;98539.66;447696;1268;108886;-40
2022/07/10 04:41:36;;;;;;;4.80;3.10;;;;;;;14.36;71.55;98536.86;447618;1267;95768;-40
2022/07/10 04:51:43;;;;;;;3.30;2.30;;;;;;;14.48;72.01;98539.98;447579;1268;95944;-41
2022/07/10 05:01:53;;;;;;;3.10;2.60;;;;;;;14.71;71.96;98545.98;447584;1268;112424;-40
2022/07/10 05:12:01;;;;;;;5.70;3.20;;;;;;;14.60;71.93;98546.29;447576;1268;108907;-40
2022/07/10 05:22:09;;;;;;;3.40;2.60;;;;;;;15.11;72.18;98549.03;447590;1268;107821;-41
2022/07/10 05:32:14;;;;;;;;;;;;;;;15.40;71.92;98553.45;447643;1268;96073;-40
2022/07/10 05:42:22;;;;;;;2.60;2.20;;;;;;;15.37;72.04;98549.49;447667;1268;95674;-40
2022/07/10 05:52:29;;;;;;;2.30;1.70;;;;;;;15.68;72.05;98558.44;447622;1268;112334;-40
2022/07/10 06:02:37;;;;;;;5.60;1.50;;;;;;;16.13;71.78;98566.16;447578;1268;108866;-40
2022/07/10 06:12:44;;;;;;;2.20;1.70;;;;;;;16.51;70.98;98570.77;447634;1268;108708;-41
2022/07/10 06:22:51;;;;;;;3.50;2.00;;;;;;;16.06;70.24;98572.56;447664;1268;96194;-40
2022/07/10 06:32:58;;;;;;;9.00;1.70;;;;;;;15.93;70.28;98572.66;447620;1268;96974;-41
2022/07/10 06:43:05;;;;;;;6.10;1.60;;;;;;;16.51;69.92;98573.08;447598;1268;112436;-41
2022/07/10 06:53:13;;;;;;;6.20;1.70;;;;;;;17.03;69.23;98561.48;447696;1268;108755;-41
2022/07/10 07:03:20;;;;;;;5.60;1.30;;;;;;;17.46;68.27;98561.98;447638;1268;108051;-41
2022/07/10 07:13:28;;;;;;;3.30;1.20;;;;;;;17.72;66.82;98563.48;447590;1268;96340;-41
2022/07/10 07:23:35;;;;;;;4.20;1.80;;;;;;;18.40;66.13;98563.30;447704;1268;96073;-41
2022/07/10 07:33:42;;;;;;;8.70;1.60;;;;;;;19.41;65.22;98561.23;447681;1268;112759;-42
2022/07/10 07:43:49;;;;;;;7.20;1.50;;;;;;;18.81;63.30;98573.14;447663;1268;109001;-40
2022/07/10 07:53:56;;;;;;;5.00;1.10;;;;;;;19.15;61.77;98567.30;447649;1268;108772;-41
2022/07/10 08:04:03;;;;;;;7.60;1.90;;;;;;;18.93;58.41;98576.70;447646;1268;95784;-40
2022/07/10 08:14:15;;;;;;;3.40;1.10;;;;;;;18.95;58.01;98573.64;447630;1268;95781;-40
2022/07/10 08:24:23;;;;;;;4.50;1.10;;;;;;;18.95;57.29;98583.60;447712;1268;112364;-40
2022/07/10 08:34:29;;;;;;;3.80;1.00;;;;;;;19.26;56.18;98583.57;447671;1268;108300;-41
2022/07/10 08:44:37;;;;;;;4.30;1.00;;;;;;;19.03;56.65;98593.54;447664;1266;108899;-40
2022/07/10 08:54:44;;;;;;;3.30;0.80;;;;;;;18.26;56.03;98605.17;447495;1268;277098;-40
2022/07/10 09:04:52;;;;;;;3.60;0.70;;;;;;;17.67;56.50;98610.80;447670;1268;96356;-40
2022/07/10 09:15:18;;;;;;;2.40;0.80;;;;;;;17.75;57.11;98605.38;447689;1268;112637;-40
2022/07/10 09:25:34;;;;;;;3.30;1.00;;;;;;;17.74;56.72;98600.83;447658;1267;108214;-41
2022/07/10 09:36:10;;;;;;;3.00;0.60;;;;;;;18.11;57.10;98602.45;447700;1267;108786;-40
2022/07/10 09:46:19;;;;;;;4.30;0.80;;;;;;;18.37;56.80;98594.59;447717;1268;96089;-41
2022/07/10 09:56:28;;;;;;;4.40;1.10;;;;;;;18.12;56.64;98593.04;447678;1268;95840;-40
2022/07/10 10:06:37;;;;;;;5.70;0.40;;;;;;;17.71;56.50;98599.08;447735;1267;111442;-41
2022/07/10 10:16:47;;;;;;;7.30;0.80;;;;;;;17.51;56.21;98602.69;447654;1268;108930;-41
2022/07/10 10:26:55;;;;;;;1.40;0.70;;;;;;;17.46;56.36;98591.59;447715;1268;108872;-40
2022/07/10 10:37:01;;;;;;;;;;;;;;;17.90;56.40;98585.86;447720;1267;95694;-40
2022/07/10 10:47:09;;;;;;;2.70;0.60;;;;;;;18.37;55.74;98586.73;447355;1270;96259;-40
2022/07/10 10:57:18;;;;;;;2.50;0.40;;;;;;;18.83;55.05;98588.30;447785;1267;112185;-41
2022/07/10 11:08:00;;;;;;;1.90;0.90;;;;;;;18.92;53.49;98585.46;447690;1267;108948;-41
2022/07/10 11:18:10;;;;;;;2.30;0.30;;;;;;;19.21;52.72;98580.26;447697;1268;108795;-40
2022/07/10 11:28:23;;;;;;;1.00;0.40;;;;;;;19.11;51.74;98574.48;447728;1268;95742;-41
2022/07/10 11:38:31;;;;;;;1.60;0.40;;;;;;;18.95;50.49;98568.52;447725;1268;95680;-41
2022/07/10 11:48:40;;;;;;;;;;;;;;;19.09;50.22;98565.77;447766;1267;111917;-42
2022/07/10 11:58:56;;;;;;;1.10;0.40;;;;;;;18.66;49.46;98572.21;447354;1269;108858;-40
2022/07/10 12:09:07;;;;;;;3.30;0.90;;;;;;;18.35;49.69;98573.73;447743;1267;108779;-40
2022/07/10 12:19:16;;;;;;;1.30;0.70;;;;;;;18.47;50.03;98578.77;447723;1268;95868;-41
2022/07/10 12:29:25;;;;;;;10.10;1.70;;;;;;;18.64;50.28;98574.55;447699;1268;96178;-40
2022/07/10 12:39:36;;;;;;;3.20;0.70;;;;;;;19.08;50.39;98569.46;447354;1269;112470;-41
2022/07/10 12:49:58;;;;;;;4.40;0.60;;;;;;;19.80;50.21;98568.23;447664;1267;109016;-40
2022/07/10 13:00:13;;;;;;;4.10;2.20;;;;;;;19.76;49.44;98575.89;447686;1267;108774;-41
2022/07/10 13:10:20;;;;;;;1.30;0.70;;;;;;;19.40;49.50;98581.73;447695;1267;96142;-41
2022/07/10 13:20:27;;;;;;;4.40;1.50;;;;;;;18.68;50.41;98586.70;447648;1267;96132;-41
2022/07/10 13:30:34;;;;;;;3.00;0.60;;;;;;;18.45;50.89;98582.58;447686;1267;112394;-42
2022/07/10 13:40:43;;;;;;;2.50;0.90;;;;;;;18.22;51.79;98594.45;447689;1267;108815;-41
2022/07/10 13:50:49;;;;;;;;;;;;;;;18.04;52.74;98597.11;447672;1267;108815;-41
2022/07/10 14:00:59;;;;;;;1.70;0.70;;;;;;;17.87;53.45;98590.96;447465;1269;95810;-42
2022/07/10 14:11:07;;;;;;;0.50;0.40;;;;;;;18.07;53.96;98579.96;447445;1269;95935;-41
2022/07/10 14:21:14;;;;;;;1.90;0.50;;;;;;;18.24;53.95;98566.40;447720;1266;112450;-41
2022/07/10 14:31:22;;;;;;;4.00;1.40;;;;;;;18.51;53.77;98564.70;447689;1267;108777;-41
2022/07/10 14:41:29;;;;;;;1.90;0.70;;;;;;;18.65;53.26;98562.00;447610;1268;107759;-41
2022/07/10 14:51:37;;;;;;;1.90;0.60;;;;;;;18.33;53.16;98561.44;447657;1268;95770;-41
2022/07/10 15:01:44;;;;;;;6.20;1.70;;;;;;;18.61;53.56;98563.76;447483;1269;96196;-41
2022/07/10 15:11:53;;;;;;;5.10;1.30;;;;;;;18.64;53.88;98571.23;447608;1267;111487;-41
2022/07/10 15:22:00;;;;;;;4.10;0.70;;;;;;;18.60;54.45;98566.34;447466;1269;109135;-42
2022/07/10 15:32:10;;;;;;;4.50;0.80;;;;;;;18.73;54.14;98557.75;447720;1267;108840;-41
2022/07/10 15:42:17;;;;;;;2.70;0.70;;;;;;;18.66;54.30;98560.81;447620;1268;96010;-41
2022/07/10 15:52:24;;;;;;;1.70;1.00;;;;;;;18.37;53.68;98562.00;447682;1268;95783;-41
2022/07/10 16:02:31;;;;;;;0.50;0.30;;;;;;;17.88;53.61;98562.66;447682;1267;112543;-41
2022/07/10 16:12:38;;;;;;;3.30;1.00;;;;;;;17.69;54.25;98569.35;447659;1266;108878;-41
2022/07/10 16:22:45;;;;;;;4.10;0.90;;;;;;;17.64;54.87;98574.08;447607;1268;109303;-41
2022/07/10 16:32:52;;;;;;;6.70;2.90;;;;;;;17.85;55.14;98581.36;447689;1267;95703;-41
2022/07/10 16:43:05;;;;;;;2.70;1.10;;;;;;;17.86;55.54;98584.98;447615;1267;95767;-41
2022/07/10 16:53:13;;;;;;;2.90;1.00;;;;;;;17.75;55.50;98581.25;447692;1267;113157;-42
2022/07/10 17:03:21;;;;;;;1.30;0.80;;;;;;;17.51;55.95;98585.75;447628;1266;108757;-41
2022/07/10 17:13:28;;;;;;;3.20;1.00;;;;;;;17.29;56.32;98594.67;447633;1267;107858;-41
2022/07/10 17:23:35;;;;;;;4.70;1.00;;;;;;;17.06;55.53;98615.49;447632;1268;96194;-41
2022/07/10 17:33:42;;;;;;;4.50;2.00;;;;;;;16.81;54.80;98630.72;447659;1266;95979;-42
2022/07/10 17:43:50;;;;;;;7.30;1.30;;;;;;;16.72;55.04;98631.27;447668;1268;111209;-42
2022/07/10 17:53:57;;;;;;;4.40;1.00;;;;;;;16.63;54.96;98634.68;447620;1267;108842;-40
2022/07/10 18:04:03;;;;;;;5.60;1.00;;;;;;;16.37;55.22;98637.92;447645;1268;108792;-41
2022/07/10 18:14:11;;;;;;;5.20;1.50;;;;;;;16.20;55.51;98651.42;447655;1268;95724;-40
2022/07/10 18:24:19;;;;;;;2.50;1.30;;;;;;;16.04;55.78;98664.90;447657;1268;96202;-40
2022/07/10 18:34:30;;;;;;;2.40;1.20;;;;;;;15.59;56.73;98688.89;447662;1267;111405;-42
2022/07/10 18:44:37;;;;;;;2.10;0.90;;;;;;;15.19;57.80;98699.56;447631;1267;107664;-40
2022/07/10 18:54:44;;;;;;;3.70;1.50;;;;;;;14.56;59.59;98709.14;447679;1268;108728;-41
2022/07/10 19:04:52;;;;;;;3.10;1.20;;;;;;;14.04;60.42;98718.27;447554;1268;95713;-41
2022/07/10 19:15:00;;;;;;;1.80;0.60;;;;;;;13.75;61.37;98726.39;447631;1268;95721;-40
2022/07/10 19:25:08;;;;;;;2.80;0.70;;;;;;;13.71;62.04;98720.43;447592;1268;112502;-40
2022/07/10 19:35:16;;;;;;;1.20;0.60;;;;;;;13.82;62.54;98727.80;447627;1268;108331;-40
2022/07/10 19:45:23;;;;;;;3.20;1.20;;;;;;;13.78;62.93;98734.84;447652;1268;108781;-41
2022/07/10 19:55:31;;;;;;;2.90;1.30;;;;;;;13.67;63.26;98734.83;447546;1268;95749;-40
2022/07/10 20:05:38;;;;;;;2.10;0.70;;;;;;;13.56;63.69;98743.89;447633;1268;95994;-40
2022/07/10 20:15:46;;;;;;;1.50;0.60;;;;;;;13.50;63.93;98741.76;447588;1268;112813;-40
2022/07/10 20:26:12;;;;;;;1.30;0.50;;;;;;;13.57;64.18;98726.70;447671;1268;108821;-41
2022/07/10 20:46:44;;;;;;;5.10;1.20;;;;;;;13.54;64.56;98725.91;447577;1268;96117;-41
2022/07/10 20:56:50;;;;;;;1.80;1.00;;;;;;;13.50;64.78;98727.09;447221;1268;626928;-41
2022/07/10 21:06:57;;;;;;;2.70;0.70;;;;;;;13.49;64.71;98725.27;447589;1268;108887;-41
2022/07/10 21:17:05;;;;;;;2.80;0.80;;;;;;;13.34;64.76;98737.81;447628;1266;108239;-41
2022/07/10 21:27:12;;;;;;;5.20;1.30;;;;;;;13.15;65.20;98746.13;447674;1268;95978;-40
2022/07/10 21:37:20;;;;;;;6.20;1.70;;;;;;;12.91;65.48;98748.63;447663;1268;95750;-40
2022/07/10 21:47:26;;;;;;;;;;;;;;;12.66;65.72;98755.67;447640;1268;112421;-40
2022/07/10 21:57:35;;;;;;;2.40;1.00;;;;;;;12.57;66.20;98751.94;447611;1268;108808;-40
2022/07/10 22:07:42;;;;;;;3.00;1.30;;;;;;;12.53;66.45;98739.92;447545;1268;108904;-40
2022/07/10 22:17:49;;;;;;;2.00;0.90;;;;;;;12.47;66.78;98736.42;447623;1268;95729;-40
2022/07/10 22:27:57;;;;;;;6.80;1.00;;;;;;;12.39;66.95;98730.30;447654;1268;96114;-41
2022/07/10 22:38:04;;;;;;;2.40;1.10;;;;;;;12.29;67.44;98725.45;447619;1268;112911;-40
2022/07/10 22:48:11;;;;;;;3.90;0.70;;;;;;;12.29;67.79;98717.42;447688;1266;108339;-41
2022/07/10 22:58:18;;;;;;;1.70;0.60;;;;;;;12.38;68.02;98715.75;447646;1268;108683;-40
2022/07/10 23:08:26;;;;;;;1.90;1.00;;;;;;;12.54;68.10;98713.52;447566;1268;96036;-39
2022/07/10 23:18:33;;;;;;;2.10;0.90;;;;;;;12.56;68.05;98718.77;447665;1268;96107;-40
2022/07/10 23:28:44;;;;;;;3.40;1.10;;;;;;;12.57;68.27;98725.73;447689;1268;111601;-40
2022/07/10 23:38:52;;;;;;;3.20;0.70;;;;;;;12.60;68.52;98728.63;447646;1268;109019;-40
2022/07/10 23:59:24;;;;;;;2.40;1.00;;;;;;;12.67;68.90;98724.51;447662;1268;96005;-41
